Time,TemperatureF,DewpointF,PressureIn,WindDirection,WindDirectionDegrees,WindSpeedMPH,WindSpeedGustMPH,Humidity,HourlyPrecipIn,Conditions,Clouds,dailyrainin,SoftwareType,DateUTC
2013-04-16 00:02:00,18.0,15.0,-100.00,North,0,11.0,17.0,91,0.00,,,-99.99,,2013-04-16 06:02:00,
2013-04-16 00:12:00,18.0,16.0,-100.00,North,0,7.0,17.0,91,0.00,,,-99.99,,2013-04-16 06:12:00,
2013-04-16 00:22:00,17.0,15.0,-100.00,North,10,7.0,17.0,92,0.00,,,-99.99,,2013-04-16 06:22:00,
2013-04-16 00:32:00,17.0,15.0,-100.00,NNW,335,11.0,21.0,92,0.00,,,-99.99,,2013-04-16 06:32:00,
2013-04-16 00:42:00,17.0,15.0,-100.00,North,0,11.0,17.0,92,0.00,,,-99.99,,2013-04-16 06:42:00,
2013-04-16 00:52:00,16.0,14.0,-100.00,North,0,6.0,17.0,92,0.00,,,-99.99,,2013-04-16 06:52:00,
2013-04-16 01:02:00,16.0,14.0,-100.00,North,0,10.0,16.0,91,0.00,,,-99.99,,2013-04-16 07:02:00,
2013-04-16 01:12:00,16.0,14.0,-100.00,North,5,9.0,12.0,91,0.00,,,-99.99,,2013-04-16 07:12:00,
2013-04-16 01:22:00,16.0,14.0,-100.00,North,0,7.0,15.0,91,0.00,,,-99.99,,2013-04-16 07:22:00,
2013-04-16 01:32:00,15.0,13.0,-100.00,North,355,9.0,15.0,91,0.00,,,-99.99,,2013-04-16 07:32:00,
2013-04-16 01:42:00,15.0,13.0,-100.00,North,0,7.0,14.0,91,0.00,,,-99.99,,2013-04-16 07:42:00,
2013-04-16 01:53:00,15.0,13.0,-100.00,North,355,6.0,12.0,90,0.00,,,-99.99,,2013-04-16 07:53:00,
2013-04-16 02:02:00,15.0,13.0,-100.00,NNE,15,5.0,12.0,90,0.00,,,-99.99,,2013-04-16 08:02:00,
2013-04-16 02:12:00,15.0,13.0,-100.00,North,355,7.0,11.0,90,0.00,,,-99.99,,2013-04-16 08:12:00,
2013-04-16 02:22:00,15.0,13.0,-100.00,NNW,330,6.0,9.0,90,0.00,,,-99.99,,2013-04-16 08:22:00,
2013-04-16 02:32:00,15.0,13.0,-100.00,NNW,330,6.0,7.0,90,0.00,,,-99.99,,2013-04-16 08:32:00,
2013-04-16 02:42:00,15.0,13.0,-100.00,NW,320,5.0,7.0,90,0.00,,,-99.99,,2013-04-16 08:42:00,
2013-04-16 02:52:00,14.0,12.0,-100.00,NW,325,2.0,6.0,90,0.00,,,-99.99,,2013-04-16 08:52:00,
2013-04-16 03:02:00,14.0,12.0,-100.00,North,350,2.0,4.0,90,0.00,,,-99.99,,2013-04-16 09:02:00,
2013-04-16 03:12:00,14.0,12.0,-100.00,North,5,2.0,4.0,90,0.00,,,-99.99,,2013-04-16 09:12:00,
2013-04-16 03:22:00,14.0,11.0,-100.00,South,185,2.0,6.0,90,0.00,,,-99.99,,2013-04-16 09:22:00,
2013-04-16 03:33:00,20.0,18.0,-100.00,South,180,10.0,16.0,91,0.00,,,-99.99,,2013-04-16 09:33:00,
2013-04-16 03:42:00,20.0,18.0,-100.00,SSE,165,11.0,17.0,91,0.00,,,-99.99,,2013-04-16 09:42:00,
2013-04-16 03:52:00,20.0,18.0,-100.00,South,175,9.0,13.0,89,0.00,,,-99.99,,2013-04-16 09:52:00,
2013-04-16 04:03:00,18.0,15.0,-100.00,South,175,4.0,12.0,88,0.00,,,-99.99,,2013-04-16 10:03:00,
2013-04-16 04:13:00,19.0,16.0,-100.00,South,180,10.0,13.0,87,0.00,,,-99.99,,2013-04-16 10:13:00,
2013-04-16 04:23:00,21.0,16.0,-100.00,South,170,14.0,20.0,78,0.00,,,-99.99,,2013-04-16 10:23:00,
2013-04-16 04:33:00,22.0,14.0,-100.00,South,170,17.0,20.0,71,0.00,,,-99.99,,2013-04-16 10:33:00,
2013-04-16 04:42:00,23.0,13.0,-100.00,SSE,165,19.0,30.0,65,0.00,,,-99.99,,2013-04-16 10:42:00,
2013-04-16 04:52:00,23.0,12.0,-100.00,SSE,165,19.0,26.0,62,0.00,,,-99.99,,2013-04-16 10:52:00,
2013-04-16 05:02:00,23.0,11.0,-100.00,South,170,17.0,28.0,58,0.00,,,-99.99,,2013-04-16 11:02:00,
2013-04-16 05:12:00,24.0,11.0,-100.00,South,170,17.0,24.0,58,0.00,,,-99.99,,2013-04-16 11:12:00,
2013-04-16 05:22:00,24.0,12.0,-100.00,South,170,17.0,23.0,60,0.00,,,-99.99,,2013-04-16 11:22:00,
2013-04-16 05:32:00,24.0,12.0,-100.00,South,175,16.0,23.0,60,0.00,,,-99.99,,2013-04-16 11:32:00,
2013-04-16 05:42:00,24.0,13.0,-100.00,South,180,17.0,24.0,61,0.00,,,-99.99,,2013-04-16 11:42:00,
2013-04-16 05:52:00,24.0,13.0,-100.00,South,170,18.0,27.0,61,0.00,,,-99.99,,2013-04-16 11:52:00,
2013-04-16 06:02:00,24.0,13.0,-100.00,South,175,17.0,27.0,60,0.00,,,-99.99,,2013-04-16 12:02:00,
2013-04-16 06:12:00,24.0,13.0,-100.00,South,175,18.0,23.0,61,0.00,,,-99.99,,2013-04-16 12:12:00,
2013-04-16 06:22:00,24.0,13.0,-100.00,SSE,165,17.0,22.0,62,0.00,,,-99.99,,2013-04-16 12:22:00,
2013-04-16 06:32:00,23.0,13.0,-100.00,SSE,165,17.0,22.0,63,0.00,,,-99.99,,2013-04-16 12:32:00,
2013-04-16 06:42:00,23.0,13.0,-100.00,South,180,16.0,22.0,63,0.00,,,-99.99,,2013-04-16 12:42:00,
2013-04-16 06:52:00,24.0,13.0,-100.00,South,180,17.0,21.0,63,0.00,,,-99.99,,2013-04-16 12:52:00,
2013-04-16 07:02:00,23.0,13.0,-100.00,South,175,18.0,22.0,63,0.00,,,-99.99,,2013-04-16 13:02:00,
2013-04-16 07:12:00,24.0,13.0,-100.00,South,180,18.0,22.0,64,0.00,,,-99.99,,2013-04-16 13:12:00,
2013-04-16 07:22:00,24.0,13.0,-100.00,South,180,17.0,25.0,63,0.00,,,-99.99,,2013-04-16 13:22:00,
2013-04-16 07:32:00,24.0,13.0,-100.00,South,175,21.0,29.0,61,0.00,,,-99.99,,2013-04-16 13:32:00,
2013-04-16 07:42:00,24.0,13.0,-100.00,South,170,21.0,32.0,61,0.00,,,-99.99,,2013-04-16 13:42:00,
2013-04-16 07:52:00,25.0,13.0,-100.00,South,175,24.0,32.0,59,0.00,,,-99.99,,2013-04-16 13:52:00,
2013-04-16 08:02:00,25.0,13.0,-100.00,South,180,25.0,34.0,59,0.00,,,-99.99,,2013-04-16 14:02:00,
2013-04-16 08:12:00,25.0,13.0,-100.00,South,170,25.0,34.0,58,0.00,,,-99.99,,2013-04-16 14:12:00,
2013-04-16 08:22:00,26.0,13.0,-100.00,South,180,21.0,30.0,58,0.00,,,-99.99,,2013-04-16 14:22:00,
2013-04-16 08:32:00,27.0,13.0,-100.00,South,180,21.0,34.0,57,0.00,,,-99.99,,2013-04-16 14:32:00,
2013-04-16 08:42:00,27.0,13.0,-100.00,South,180,21.0,37.0,56,0.00,,,-99.99,,2013-04-16 14:42:00,
2013-04-16 08:52:00,27.0,13.0,-100.00,South,175,29.0,40.0,55,0.00,,,-99.99,,2013-04-16 14:52:00,
2013-04-16 09:02:00,28.0,14.0,-100.00,South,180,25.0,40.0,55,0.00,,,-99.99,,2013-04-16 15:02:00,
2013-04-16 09:12:00,28.0,14.0,-100.00,South,185,22.0,33.0,55,0.00,,,-99.99,,2013-04-16 15:12:00,
2013-04-16 09:22:00,28.0,14.0,-100.00,South,175,25.0,37.0,55,0.00,,,-99.99,,2013-04-16 15:22:00,
2013-04-16 09:33:00,28.0,14.0,-100.00,South,175,26.0,37.0,53,0.00,,,-99.99,,2013-04-16 15:33:00,
2013-04-16 09:43:00,29.0,14.0,-100.00,South,175,24.0,38.0,52,0.00,,,-99.99,,2013-04-16 15:43:00,
2013-04-16 09:52:00,30.0,13.0,-100.00,South,170,26.0,34.0,48,0.00,,,-99.99,,2013-04-16 15:52:00,
2013-04-16 10:03:00,30.0,13.0,-100.00,South,170,25.0,36.0,48,0.00,,,-99.99,,2013-04-16 16:03:00,
2013-04-16 10:13:00,31.0,13.0,-100.00,South,170,24.0,38.0,46,0.00,,,-99.99,,2013-04-16 16:13:00,
2013-04-16 10:23:00,31.0,12.0,-100.00,South,175,22.0,38.0,45,0.00,,,-99.99,,2013-04-16 16:23:00,
2013-04-16 10:32:00,31.0,11.0,-100.00,South,175,30.0,40.0,43,0.00,,,-99.99,,2013-04-16 16:32:00,
2013-04-16 10:42:00,33.0,12.0,-100.00,South,180,24.0,40.0,41,0.00,,,-99.99,,2013-04-16 16:42:00,
2013-04-16 10:52:00,33.0,11.0,-100.00,South,180,25.0,42.0,40,0.00,,,-99.99,,2013-04-16 16:52:00,
2013-04-16 11:02:00,34.0,11.0,-100.00,South,180,24.0,39.0,37,0.00,,,-99.99,,2013-04-16 17:02:00,
2013-04-16 11:12:00,35.0,11.0,-100.00,South,170,22.0,39.0,37,0.00,,,-99.99,,2013-04-16 17:12:00,
2013-04-16 11:22:00,35.0,12.0,-100.00,South,175,29.0,41.0,37,0.00,,,-99.99,,2013-04-16 17:22:00,
2013-04-16 11:32:00,34.0,10.0,-100.00,South,175,34.0,47.0,37,0.00,,,-99.99,,2013-04-16 17:32:00,
2013-04-16 11:43:00,35.0,11.0,-100.00,South,185,31.0,48.0,36,0.00,,,-99.99,,2013-04-16 17:43:00,
2013-04-16 11:52:00,35.0,11.0,-100.00,South,175,31.0,45.0,36,0.00,,,-99.99,,2013-04-16 17:52:00,
2013-04-16 12:02:00,36.0,11.0,-100.00,South,175,29.0,51.0,34,0.00,,,-99.99,,2013-04-16 18:02:00,
2013-04-16 12:12:00,36.0,12.0,-100.00,South,175,33.0,52.0,36,0.00,,,-99.99,,2013-04-16 18:12:00,
2013-04-16 12:22:00,35.0,11.0,-100.00,South,180,35.0,52.0,36,0.00,,,-99.99,,2013-04-16 18:22:00,
2013-04-16 12:32:00,36.0,12.0,-100.00,South,180,39.0,58.0,36,0.00,,,-99.99,,2013-04-16 18:32:00,
2013-04-16 12:42:00,37.0,12.0,-100.00,South,180,24.0,42.0,34,0.00,,,-99.99,,2013-04-16 18:42:00,
2013-04-16 12:52:00,37.0,11.0,-100.00,South,180,29.0,59.0,34,0.00,,,-99.99,,2013-04-16 18:52:00,
2013-04-16 13:02:00,37.0,11.0,-100.00,South,175,37.0,49.0,34,0.00,,,-99.99,,2013-04-16 19:02:00,
2013-04-16 13:12:00,38.0,12.0,-100.00,South,175,29.0,56.0,34,0.00,,,-99.99,,2013-04-16 19:12:00,
2013-04-16 13:22:00,37.0,12.0,-100.00,South,175,33.0,46.0,34,0.00,,,-99.99,,2013-04-16 19:22:00,
2013-04-16 13:32:00,38.0,12.0,-100.00,South,180,33.0,57.0,33,0.00,,,-99.99,,2013-04-16 19:32:00,
2013-04-16 13:42:00,37.0,11.0,-100.00,South,180,38.0,55.0,33,0.00,,,-99.99,,2013-04-16 19:42:00,
2013-04-16 13:52:00,37.0,11.0,-100.00,SSE,165,36.0,55.0,33,0.00,,,-99.99,,2013-04-16 19:52:00,
2013-04-16 14:02:00,38.0,11.0,-100.00,South,170,39.0,54.0,33,0.00,,,-99.99,,2013-04-16 20:02:00,
2013-04-16 14:12:00,38.0,11.0,-100.00,South,185,29.0,58.0,32,0.00,,,-99.99,,2013-04-16 20:12:00,
2013-04-16 14:22:00,38.0,11.0,-100.00,SSE,165,30.0,51.0,32,0.00,,,-99.99,,2013-04-16 20:22:00,
2013-04-16 14:32:00,39.0,11.0,-100.00,South,180,29.0,45.0,31,0.00,,,-99.99,,2013-04-16 20:32:00,
2013-04-16 14:42:00,39.0,12.0,-100.00,South,170,32.0,50.0,31,0.00,,,-99.99,,2013-04-16 20:42:00,
2013-04-16 14:52:00,38.0,10.0,-100.00,South,185,40.0,52.0,31,0.00,,,-99.99,,2013-04-16 20:52:00,
2013-04-16 15:02:00,39.0,11.0,-100.00,SSE,160,41.0,57.0,31,0.00,,,-99.99,,2013-04-16 21:02:00,
2013-04-16 15:12:00,40.0,11.0,-100.00,South,175,34.0,51.0,29,0.00,,,-99.99,,2013-04-16 21:12:00,
2013-04-16 15:22:00,40.0,11.0,-100.00,North,-999,-999.0,-999.0,29,0.00,,,-99.99,,2013-04-16 21:22:00,
2013-04-16 15:32:00,40.0,10.0,-100.00,South,175,24.0,53.0,28,0.00,,,-99.99,,2013-04-16 21:32:00,
2013-04-16 15:43:00,40.0,10.0,-100.00,South,180,32.0,60.0,28,0.00,,,-99.99,,2013-04-16 21:43:00,
2013-04-16 15:53:00,40.0,10.0,-100.00,South,175,34.0,54.0,28,0.00,,,-99.99,,2013-04-16 21:53:00,
2013-04-16 16:02:00,39.0,8.0,-100.00,South,170,39.0,58.0,27,0.00,,,-99.99,,2013-04-16 22:02:00,
2013-04-16 16:13:00,41.0,9.0,-100.00,South,175,27.0,49.0,26,0.00,,,-99.99,,2013-04-16 22:13:00,
2013-04-16 16:22:00,40.0,8.0,-100.00,South,185,31.0,53.0,26,0.00,,,-99.99,,2013-04-16 22:22:00,
2013-04-16 16:33:00,40.0,9.0,-100.00,South,175,27.0,51.0,26,0.00,,,-99.99,,2013-04-16 22:33:00,
2013-04-16 16:42:00,40.0,9.0,-100.00,South,175,24.0,47.0,27,0.00,,,-99.99,,2013-04-16 22:42:00,
2013-04-16 16:52:00,39.0,8.0,-100.00,South,175,32.0,47.0,27,0.00,,,-99.99,,2013-04-16 22:52:00,
2013-04-16 17:02:00,39.0,8.0,-100.00,SSE,165,30.0,47.0,27,0.00,,,-99.99,,2013-04-16 23:02:00,
2013-04-16 17:12:00,40.0,9.0,-100.00,South,180,25.0,48.0,27,0.00,,,-99.99,,2013-04-16 23:12:00,
2013-04-16 17:22:00,40.0,8.0,-100.00,South,175,26.0,36.0,26,0.00,,,-99.99,,2013-04-16 23:22:00,
2013-04-16 17:32:00,40.0,8.0,-100.00,South,175,27.0,40.0,26,0.00,,,-99.99,,2013-04-16 23:32:00,
2013-04-16 17:42:00,40.0,6.0,-100.00,SSE,150,36.0,57.0,24,0.00,,,-99.99,,2013-04-16 23:42:00,
2013-04-16 17:52:00,40.0,6.0,-100.00,SSE,160,37.0,51.0,23,0.00,,,-99.99,,2013-04-16 23:52:00,
2013-04-16 18:02:00,40.0,5.0,-100.00,South,175,30.0,55.0,23,0.00,,,-99.99,,2013-04-17 00:02:00,
2013-04-16 18:12:00,40.0,6.0,-100.00,SSE,155,24.0,43.0,23,0.00,,,-99.99,,2013-04-17 00:12:00,
2013-04-16 18:22:00,40.0,5.0,-100.00,SSE,160,27.0,52.0,23,0.00,,,-99.99,,2013-04-17 00:22:00,
2013-04-16 18:32:00,39.0,5.0,-100.00,South,185,29.0,46.0,23,0.00,,,-99.99,,2013-04-17 00:32:00,
2013-04-16 18:42:00,39.0,5.0,-100.00,South,180,29.0,42.0,23,0.00,,,-99.99,,2013-04-17 00:42:00,
2013-04-16 18:52:00,39.0,5.0,-100.00,SSE,150,32.0,51.0,24,0.00,,,-99.99,,2013-04-17 00:52:00,
2013-04-16 19:02:00,38.0,4.0,-100.00,South,180,32.0,45.0,23,0.00,,,-99.99,,2013-04-17 01:02:00,
2013-04-16 19:12:00,38.0,4.0,-100.00,South,190,29.0,46.0,23,0.00,,,-99.99,,2013-04-17 01:12:00,
2013-04-16 19:22:00,38.0,4.0,-100.00,SSE,165,32.0,52.0,23,0.00,,,-99.99,,2013-04-17 01:22:00,
2013-04-16 19:32:00,37.0,4.0,-100.00,SSE,165,29.0,41.0,23,0.00,,,-99.99,,2013-04-17 01:32:00,
2013-04-16 19:42:00,37.0,4.0,-100.00,SSE,165,29.0,41.0,23,0.00,,,-99.99,,2013-04-17 01:42:00,
2013-04-16 19:52:00,37.0,4.0,-100.00,South,175,24.0,45.0,24,0.00,,,-99.99,,2013-04-17 01:52:00,
2013-04-16 20:02:00,37.0,3.0,-100.00,South,180,37.0,50.0,23,0.00,,,-99.99,,2013-04-17 02:02:00,
2013-04-16 20:12:00,37.0,3.0,-100.00,SSE,165,26.0,45.0,24,0.00,,,-99.99,,2013-04-17 02:12:00,
2013-04-16 20:22:00,37.0,4.0,-100.00,South,175,24.0,39.0,24,0.00,,,-99.99,,2013-04-17 02:22:00,
2013-04-16 20:32:00,36.0,3.0,-100.00,SSE,155,21.0,35.0,24,0.00,,,-99.99,,2013-04-17 02:32:00,
2013-04-16 20:42:00,36.0,4.0,-100.00,South,170,24.0,31.0,25,0.00,,,-99.99,,2013-04-17 02:42:00,
2013-04-16 20:52:00,36.0,4.0,-100.00,South,175,25.0,32.0,25,0.00,,,-99.99,,2013-04-17 02:52:00,
2013-04-16 21:02:00,35.0,4.0,-100.00,South,170,25.0,33.0,25,0.00,,,-99.99,,2013-04-17 03:02:00,
2013-04-16 21:12:00,35.0,4.0,-100.00,South,175,25.0,35.0,25,0.00,,,-99.99,,2013-04-17 03:12:00,
2013-04-16 21:22:00,35.0,3.0,-100.00,SSE,160,25.0,39.0,25,0.00,,,-99.99,,2013-04-17 03:22:00,
2013-04-16 21:33:00,35.0,3.0,-100.00,South,175,27.0,41.0,25,0.00,,,-99.99,,2013-04-17 03:33:00,
2013-04-16 21:42:00,35.0,3.0,-100.00,South,170,31.0,39.0,25,0.00,,,-99.99,,2013-04-17 03:42:00,
2013-04-16 21:53:00,35.0,3.0,-100.00,South,170,24.0,38.0,25,0.00,,,-99.99,,2013-04-17 03:53:00,
2013-04-16 22:03:00,35.0,3.0,-100.00,South,190,24.0,34.0,25,0.00,,,-99.99,,2013-04-17 04:03:00,
2013-04-16 22:13:00,34.0,3.0,-100.00,South,175,21.0,31.0,25,0.00,,,-99.99,,2013-04-17 04:13:00,
2013-04-16 22:22:00,34.0,3.0,-100.00,SSE,160,22.0,32.0,26,0.00,,,-99.99,,2013-04-17 04:22:00,
2013-04-16 22:33:00,34.0,3.0,-100.00,South,170,20.0,32.0,26,0.00,,,-99.99,,2013-04-17 04:33:00,
2013-04-16 22:42:00,33.0,3.0,-100.00,SSE,160,22.0,30.0,27,0.00,,,-99.99,,2013-04-17 04:42:00,
2013-04-16 22:52:00,33.0,3.0,-100.00,SSE,150,19.0,32.0,27,0.00,,,-99.99,,2013-04-17 04:52:00,
2013-04-16 23:02:00,33.0,3.0,-100.00,SSE,165,27.0,34.0,27,0.00,,,-99.99,,2013-04-17 05:02:00,
2013-04-16 23:12:00,33.0,2.0,-100.00,SE,145,18.0,34.0,27,0.00,,,-99.99,,2013-04-17 05:12:00,
2013-04-16 23:22:00,32.0,3.0,-100.00,SSE,165,23.0,35.0,27,0.00,,,-99.99,,2013-04-17 05:22:00,
2013-04-16 23:32:00,32.0,3.0,-100.00,SSE,155,24.0,39.0,28,0.00,,,-99.99,,2013-04-17 05:32:00,
2013-04-16 23:42:00,32.0,3.0,-100.00,SSE,155,26.0,39.0,28,0.00,,,-99.99,,2013-04-17 05:42:00,
2013-04-16 23:52:00,32.0,3.0,-100.00,SSE,165,21.0,39.0,29,0.00,,,-99.99,,2013-04-17 05:52:00,